sensor_id;sensor_type;location;lat;lon;timestamp;temperature;humidity
68813;DHT22;55808;48.112;11.552;2022-09-28T00:01:17;7.80;99.90
68813;DHT22;55808;48.112;11.552;2022-09-28T00:03:45;7.80;99.90
68813;DHT22;55808;48.112;11.552;2022-09-28T00:06:12;7.80;99.90
68813;DHT22;55808;48.112;11.552;2022-09-28T00:08:38;7.90;99.90
68813;DHT22;55808;48.112;11.552;2022-09-28T00:11:06;7.80;99.90
68813;DHT22;55808;48.112;11.552;2022-09-28T00:13:32;7.80;99.90
68813;DHT22;55808;48.112;11.552;2022-09-28T00:16:08;7.80;99.90
68813;DHT22;55808;48.112;11.552;2022-09-28T00:18:35;7.80;99.90
68813;DHT22;55808;48.112;11.552;2022-09-28T00:21:02;7.80;99.90
68813;DHT22;55808;48.112;11.552;2022-09-28T00:23:28;7.80;99.90
68813;DHT22;55808;48.112;11.552;2022-09-28T00:25:53;7.80;99.90
68813;DHT22;55808;48.112;11.552;2022-09-28T00:28:19;7.70;99.90
68813;DHT22;55808;48.112;11.552;2022-09-28T00:30:44;7.70;99.90
68813;DHT22;55808;48.112;11.552;2022-09-28T00:33:10;7.80;99.90
68813;DHT22;55808;48.112;11.552;2022-09-28T00:35:36;7.80;99.90
68813;DHT22;55808;48.112;11.552;2022-09-28T00:38:01;7.80;99.90
68813;DHT22;55808;48.112;11.552;2022-09-28T00:40:28;7.80;99.90
68813;DHT22;55808;48.112;11.552;2022-09-28T00:42:53;7.80;99.90
68813;DHT22;55808;48.112;11.552;2022-09-28T00:45:21;7.80;99.90
68813;DHT22;55808;48.112;11.552;2022-09-28T00:47:49;7.70;99.90
68813;DHT22;55808;48.112;11.552;2022-09-28T00:50:28;7.80;99.90
68813;DHT22;55808;48.112;11.552;2022-09-28T00:53:16;7.80;99.90
68813;DHT22;55808;48.112;11.552;2022-09-28T00:55:56;7.80;99.90
68813;DHT22;55808;48.112;11.552;2022-09-28T00:58:26;7.80;99.90
68813;DHT22;55808;48.112;11.552;2022-09-28T01:00:54;7.80;99.90
68813;DHT22;55808;48.112;11.552;2022-09-28T01:03:23;7.80;99.90
68813;DHT22;55808;48.112;11.552;2022-09-28T01:05:50;7.70;99.90
68813;DHT22;55808;48.112;11.552;2022-09-28T01:08:18;7.70;99.90
68813;DHT22;55808;48.112;11.552;2022-09-28T01:10:46;7.70;99.90
68813;DHT22;55808;48.112;11.552;2022-09-28T01:13:13;7.70;99.90
68813;DHT22;55808;48.112;11.552;2022-09-28T01:15:53;7.70;99.90
68813;DHT22;55808;48.112;11.552;2022-09-28T01:21:21;7.60;99.90
68813;DHT22;55808;48.112;11.552;2022-09-28T01:24:14;7.60;99.90
68813;DHT22;55808;48.112;11.552;2022-09-28T01:26:53;7.60;99.90
68813;DHT22;55808;48.112;11.552;2022-09-28T01:34:44;7.70;99.90
68813;DHT22;55808;48.112;11.552;2022-09-28T01:37:12;7.70;99.90
68813;DHT22;55808;48.112;11.552;2022-09-28T01:39:43;7.70;99.90
68813;DHT22;55808;48.112;11.552;2022-09-28T01:42:15;7.70;99.90
68813;DHT22;55808;48.112;11.552;2022-09-28T01:44:45;7.70;99.90
68813;DHT22;55808;48.112;11.552;2022-09-28T01:47:14;7.80;99.90
68813;DHT22;55808;48.112;11.552;2022-09-28T01:49:48;7.90;99.90
68813;DHT22;55808;48.112;11.552;2022-09-28T01:52:40;7.80;99.90
68813;DHT22;55808;48.112;11.552;2022-09-28T01:55:33;7.90;99.90
68813;DHT22;55808;48.112;11.552;2022-09-28T01:58:02;7.90;99.90
68813;DHT22;55808;48.112;11.552;2022-09-28T02:00:30;7.90;99.90
68813;DHT22;55808;48.112;11.552;2022-09-28T02:03:16;7.90;99.90
68813;DHT22;55808;48.112;11.552;2022-09-28T02:05:49;7.90;99.90
68813;DHT22;55808;48.112;11.552;2022-09-28T02:08:34;7.90;99.90
68813;DHT22;55808;48.112;11.552;2022-09-28T02:11:12;7.90;99.90
68813;DHT22;55808;48.112;11.552;2022-09-28T02:13:44;7.90;99.90
68813;DHT22;55808;48.112;11.552;2022-09-28T02:18:54;7.90;99.90
68813;DHT22;55808;48.112;11.552;2022-09-28T02:21:36;7.90;99.90
68813;DHT22;55808;48.112;11.552;2022-09-28T02:24:14;7.90;99.90
68813;DHT22;55808;48.112;11.552;2022-09-28T02:26:44;7.90;99.90
68813;DHT22;55808;48.112;11.552;2022-09-28T02:29:11;7.90;99.90
68813;DHT22;55808;48.112;11.552;2022-09-28T02:31:37;7.90;99.90
68813;DHT22;55808;48.112;11.552;2022-09-28T02:34:03;7.90;99.90
68813;DHT22;55808;48.112;11.552;2022-09-28T02:36:29;7.90;99.90
68813;DHT22;55808;48.112;11.552;2022-09-28T02:38:56;7.90;99.90
68813;DHT22;55808;48.112;11.552;2022-09-28T02:44:42;7.90;99.90
68813;DHT22;55808;48.112;11.552;2022-09-28T02:58:25;7.90;99.90
68813;DHT22;55808;48.112;11.552;2022-09-28T03:04:00;7.80;99.90
68813;DHT22;55808;48.112;11.552;2022-09-28T03:06:47;7.80;99.90
68813;DHT22;55808;48.112;11.552;2022-09-28T03:09:28;7.80;99.90
68813;DHT22;55808;48.112;11.552;2022-09-28T03:12:00;7.70;99.90
68813;DHT22;55808;48.112;11.552;2022-09-28T03:14:28;7.60;99.90
68813;DHT22;55808;48.112;11.552;2022-09-28T03:16:54;7.60;99.90
68813;DHT22;55808;48.112;11.552;2022-09-28T03:19:24;7.50;99.90
68813;DHT22;55808;48.112;11.552;2022-09-28T03:21:51;7.50;99.90
68813;DHT22;55808;48.112;11.552;2022-09-28T03:24:17;7.40;99.90
68813;DHT22;55808;48.112;11.552;2022-09-28T03:26:42;7.40;99.90
68813;DHT22;55808;48.112;11.552;2022-09-28T03:29:08;7.30;99.90
68813;DHT22;55808;48.112;11.552;2022-09-28T03:31:34;7.30;99.90
68813;DHT22;55808;48.112;11.552;2022-09-28T03:33:59;7.20;99.90
68813;DHT22;55808;48.112;11.552;2022-09-28T03:36:25;7.30;99.90
68813;DHT22;55808;48.112;11.552;2022-09-28T03:38:51;7.30;99.90
68813;DHT22;55808;48.112;11.552;2022-09-28T03:41:20;7.30;99.90
68813;DHT22;55808;48.112;11.552;2022-09-28T03:43:46;7.30;99.90
68813;DHT22;55808;48.112;11.552;2022-09-28T03:46:11;7.30;99.90
68813;DHT22;55808;48.112;11.552;2022-09-28T03:48:39;7.30;99.90
68813;DHT22;55808;48.112;11.552;2022-09-28T03:51:06;7.30;99.90
68813;DHT22;55808;48.112;11.552;2022-09-28T03:53:34;7.30;99.90
68813;DHT22;55808;48.112;11.552;2022-09-28T03:56:18;7.40;99.90
68813;DHT22;55808;48.112;11.552;2022-09-28T03:58:45;7.40;99.90
68813;DHT22;55808;48.112;11.552;2022-09-28T04:01:12;7.40;99.90
68813;DHT22;55808;48.112;11.552;2022-09-28T04:03:38;7.40;99.90
68813;DHT22;55808;48.112;11.552;2022-09-28T04:06:04;7.40;99.90
68813;DHT22;55808;48.112;11.552;2022-09-28T04:08:30;7.50;99.90
68813;DHT22;55808;48.112;11.552;2022-09-28T04:10:57;7.50;99.90
68813;DHT22;55808;48.112;11.552;2022-09-28T04:13:23;7.40;99.90
68813;DHT22;55808;48.112;11.552;2022-09-28T04:15:54;7.40;99.90
68813;DHT22;55808;48.112;11.552;2022-09-28T04:18:20;7.50;99.90
68813;DHT22;55808;48.112;11.552;2022-09-28T04:20:46;7.40;99.90
68813;DHT22;55808;48.112;11.552;2022-09-28T04:23:15;7.40;99.90
68813;DHT22;55808;48.112;11.552;2022-09-28T04:25:41;7.40;99.90
68813;DHT22;55808;48.112;11.552;2022-09-28T04:28:12;7.40;99.90
68813;DHT22;55808;48.112;11.552;2022-09-28T04:30:56;7.40;99.90
68813;DHT22;55808;48.112;11.552;2022-09-28T04:33:21;7.30;99.90
68813;DHT22;55808;48.112;11.552;2022-09-28T04:35:47;7.30;99.90
68813;DHT22;55808;48.112;11.552;2022-09-28T04:38:12;7.30;99.90
68813;DHT22;55808;48.112;11.552;2022-09-28T04:40:38;7.30;99.90
68813;DHT22;55808;48.112;11.552;2022-09-28T04:43:04;7.30;99.90
68813;DHT22;55808;48.112;11.552;2022-09-28T04:45:29;7.40;99.90
68813;DHT22;55808;48.112;11.552;2022-09-28T04:47:55;7.40;99.90
68813;DHT22;55808;48.112;11.552;2022-09-28T04:50:20;7.30;99.90
68813;DHT22;55808;48.112;11.552;2022-09-28T04:52:46;7.30;99.90
68813;DHT22;55808;48.112;11.552;2022-09-28T04:55:12;7.20;99.90
68813;DHT22;55808;48.112;11.552;2022-09-28T04:57:39;7.20;99.90
68813;DHT22;55808;48.112;11.552;2022-09-28T05:00:05;7.20;99.90
68813;DHT22;55808;48.112;11.552;2022-09-28T05:02:31;7.20;99.90
68813;DHT22;55808;48.112;11.552;2022-09-28T05:04:57;7.20;99.90
68813;DHT22;55808;48.112;11.552;2022-09-28T05:07:24;7.20;99.90
68813;DHT22;55808;48.112;11.552;2022-09-28T05:09:50;7.20;99.90
68813;DHT22;55808;48.112;11.552;2022-09-28T05:12:16;7.30;99.90
68813;DHT22;55808;48.112;11.552;2022-09-28T05:14:42;7.20;99.90
68813;DHT22;55808;48.112;11.552;2022-09-28T05:17:08;7.10;99.90
68813;DHT22;55808;48.112;11.552;2022-09-28T05:19:34;7.10;99.90
68813;DHT22;55808;48.112;11.552;2022-09-28T05:22:00;7.10;99.90
68813;DHT22;55808;48.112;11.552;2022-09-28T05:24:29;7.20;99.90
68813;DHT22;55808;48.112;11.552;2022-09-28T05:26:55;7.20;99.90
68813;DHT22;55808;48.112;11.552;2022-09-28T05:29:21;7.20;99.90
68813;DHT22;55808;48.112;11.552;2022-09-28T05:31:46;7.30;99.90
68813;DHT22;55808;48.112;11.552;2022-09-28T05:34:12;7.20;99.90
68813;DHT22;55808;48.112;11.552;2022-09-28T05:36:38;7.20;99.90
68813;DHT22;55808;48.112;11.552;2022-09-28T05:39:05;7.30;99.90
68813;DHT22;55808;48.112;11.552;2022-09-28T05:41:31;7.30;99.90
68813;DHT22;55808;48.112;11.552;2022-09-28T05:43:57;7.40;99.90
68813;DHT22;55808;48.112;11.552;2022-09-28T05:46:23;7.40;99.90
68813;DHT22;55808;48.112;11.552;2022-09-28T05:48:49;7.30;99.90
68813;DHT22;55808;48.112;11.552;2022-09-28T05:51:19;7.30;99.90
68813;DHT22;55808;48.112;11.552;2022-09-28T05:53:45;7.30;99.90
68813;DHT22;55808;48.112;11.552;2022-09-28T05:56:11;7.30;99.90
68813;DHT22;55808;48.112;11.552;2022-09-28T05:58:37;7.30;99.90
68813;DHT22;55808;48.112;11.552;2022-09-28T06:01:02;7.30;99.90
68813;DHT22;55808;48.112;11.552;2022-09-28T06:03:28;7.30;99.90
68813;DHT22;55808;48.112;11.552;2022-09-28T06:05:53;7.30;99.90
68813;DHT22;55808;48.112;11.552;2022-09-28T06:08:19;7.30;99.90
68813;DHT22;55808;48.112;11.552;2022-09-28T06:10:45;7.40;99.90
68813;DHT22;55808;48.112;11.552;2022-09-28T06:13:11;7.40;99.90
68813;DHT22;55808;48.112;11.552;2022-09-28T06:15:36;7.40;99.90
68813;DHT22;55808;48.112;11.552;2022-09-28T06:18:06;7.40;99.90
68813;DHT22;55808;48.112;11.552;2022-09-28T06:20:36;7.40;99.90
68813;DHT22;55808;48.112;11.552;2022-09-28T06:23:02;7.50;99.90
68813;DHT22;55808;48.112;11.552;2022-09-28T06:25:28;7.30;99.90
68813;DHT22;55808;48.112;11.552;2022-09-28T06:27:58;7.30;99.90
68813;DHT22;55808;48.112;11.552;2022-09-28T06:30:25;7.30;99.90
68813;DHT22;55808;48.112;11.552;2022-09-28T06:32:55;7.30;99.90
68813;DHT22;55808;48.112;11.552;2022-09-28T06:35:23;7.30;99.90
68813;DHT22;55808;48.112;11.552;2022-09-28T06:37:50;7.30;99.90
68813;DHT22;55808;48.112;11.552;2022-09-28T06:40:16;7.30;99.90
68813;DHT22;55808;48.112;11.552;2022-09-28T06:42:42;7.30;99.90
68813;DHT22;55808;48.112;11.552;2022-09-28T06:45:08;7.40;99.90
68813;DHT22;55808;48.112;11.552;2022-09-28T06:47:35;7.30;99.90
68813;DHT22;55808;48.112;11.552;2022-09-28T06:50:03;7.40;99.90
68813;DHT22;55808;48.112;11.552;2022-09-28T06:52:28;7.40;99.90
68813;DHT22;55808;48.112;11.552;2022-09-28T06:54:54;7.40;99.90
68813;DHT22;55808;48.112;11.552;2022-09-28T06:57:19;7.40;99.90
68813;DHT22;55808;48.112;11.552;2022-09-28T06:59:45;7.40;99.90
68813;DHT22;55808;48.112;11.552;2022-09-28T07:02:11;7.40;99.90
68813;DHT22;55808;48.112;11.552;2022-09-28T07:04:42;7.40;99.90
68813;DHT22;55808;48.112;11.552;2022-09-28T07:07:10;7.50;99.90
68813;DHT22;55808;48.112;11.552;2022-09-28T07:09:36;7.40;99.90
68813;DHT22;55808;48.112;11.552;2022-09-28T07:12:08;7.40;99.90
68813;DHT22;55808;48.112;11.552;2022-09-28T07:14:37;7.40;99.90
68813;DHT22;55808;48.112;11.552;2022-09-28T07:17:04;7.40;99.90
68813;DHT22;55808;48.112;11.552;2022-09-28T07:19:32;7.50;99.90
68813;DHT22;55808;48.112;11.552;2022-09-28T07:21:59;7.50;99.90
68813;DHT22;55808;48.112;11.552;2022-09-28T07:24:24;7.60;99.90
68813;DHT22;55808;48.112;11.552;2022-09-28T07:26:50;7.50;99.90
68813;DHT22;55808;48.112;11.552;2022-09-28T07:29:15;7.50;99.90
68813;DHT22;55808;48.112;11.552;2022-09-28T07:31:41;7.50;99.90
68813;DHT22;55808;48.112;11.552;2022-09-28T07:34:06;7.50;99.90
68813;DHT22;55808;48.112;11.552;2022-09-28T07:36:32;7.50;99.90
68813;DHT22;55808;48.112;11.552;2022-09-28T07:39:00;7.50;99.90
68813;DHT22;55808;48.112;11.552;2022-09-28T07:41:27;7.50;99.90
68813;DHT22;55808;48.112;11.552;2022-09-28T07:43:59;7.60;99.90
68813;DHT22;55808;48.112;11.552;2022-09-28T07:46:35;7.60;99.90
68813;DHT22;55808;48.112;11.552;2022-09-28T07:49:02;7.60;99.90
68813;DHT22;55808;48.112;11.552;2022-09-28T07:51:30;7.70;99.90
68813;DHT22;55808;48.112;11.552;2022-09-28T07:53:56;7.70;99.90
68813;DHT22;55808;48.112;11.552;2022-09-28T07:56:22;7.70;99.90
68813;DHT22;55808;48.112;11.552;2022-09-28T07:58:48;7.60;99.90
68813;DHT22;55808;48.112;11.552;2022-09-28T08:01:14;7.60;99.90
68813;DHT22;55808;48.112;11.552;2022-09-28T08:03:42;7.70;99.90
68813;DHT22;55808;48.112;11.552;2022-09-28T08:06:14;7.70;99.90
68813;DHT22;55808;48.112;11.552;2022-09-28T08:08:41;7.80;99.90
68813;DHT22;55808;48.112;11.552;2022-09-28T08:11:15;7.90;99.90
68813;DHT22;55808;48.112;11.552;2022-09-28T08:13:42;7.90;99.90
68813;DHT22;55808;48.112;11.552;2022-09-28T08:16:10;7.90;99.90
68813;DHT22;55808;48.112;11.552;2022-09-28T08:18:36;8.00;99.90
68813;DHT22;55808;48.112;11.552;2022-09-28T08:21:03;8.00;99.90
68813;DHT22;55808;48.112;11.552;2022-09-28T08:23:48;8.00;99.90
68813;DHT22;55808;48.112;11.552;2022-09-28T08:26:15;8.10;99.90
68813;DHT22;55808;48.112;11.552;2022-09-28T08:28:44;8.20;99.90
68813;DHT22;55808;48.112;11.552;2022-09-28T08:31:12;8.20;99.90
68813;DHT22;55808;48.112;11.552;2022-09-28T08:33:37;8.30;99.90
68813;DHT22;55808;48.112;11.552;2022-09-28T08:36:03;8.20;99.90
68813;DHT22;55808;48.112;11.552;2022-09-28T08:38:30;8.00;99.90
68813;DHT22;55808;48.112;11.552;2022-09-28T08:46:23;8.10;99.90
68813;DHT22;55808;48.112;11.552;2022-09-28T08:49:07;8.10;99.90
68813;DHT22;55808;48.112;11.552;2022-09-28T09:04:50;8.30;99.90
68813;DHT22;55808;48.112;11.552;2022-09-28T09:07:25;8.40;99.90
68813;DHT22;55808;48.112;11.552;2022-09-28T09:12:38;8.50;99.90
68813;DHT22;55808;48.112;11.552;2022-09-28T09:17:58;8.60;99.90
68813;DHT22;55808;48.112;11.552;2022-09-28T09:20:44;8.50;99.90
68813;DHT22;55808;48.112;11.552;2022-09-28T09:23:40;7.70;99.90
68813;DHT22;55808;48.112;11.552;2022-09-28T09:26:17;7.60;99.90
68813;DHT22;55808;48.112;11.552;2022-09-28T09:34:16;7.50;99.90
68813;DHT22;55808;48.112;11.552;2022-09-28T09:36:57;7.50;99.90
68813;DHT22;55808;48.112;11.552;2022-09-28T09:39:49;7.40;99.90
68813;DHT22;55808;48.112;11.552;2022-09-28T09:42:24;7.50;99.90
68813;DHT22;55808;48.112;11.552;2022-09-28T09:47:31;7.60;99.90
68813;DHT22;55808;48.112;11.552;2022-09-28T09:50:07;7.60;99.90
68813;DHT22;55808;48.112;11.552;2022-09-28T09:52:50;7.70;99.90
68813;DHT22;55808;48.112;11.552;2022-09-28T09:55:34;7.60;99.90
68813;DHT22;55808;48.112;11.552;2022-09-28T09:58:10;7.70;99.90
68813;DHT22;55808;48.112;11.552;2022-09-28T10:00:40;7.70;99.90
68813;DHT22;55808;48.112;11.552;2022-09-28T10:03:18;7.90;99.90
68813;DHT22;55808;48.112;11.552;2022-09-28T10:05:50;7.80;99.90
68813;DHT22;55808;48.112;11.552;2022-09-28T10:08:20;7.80;99.90
68813;DHT22;55808;48.112;11.552;2022-09-28T10:13:47;7.80;99.90
68813;DHT22;55808;48.112;11.552;2022-09-28T10:16:15;7.80;99.90
68813;DHT22;55808;48.112;11.552;2022-09-28T10:18:42;7.60;99.90
68813;DHT22;55808;48.112;11.552;2022-09-28T10:21:12;7.70;99.90
68813;DHT22;55808;48.112;11.552;2022-09-28T10:23:40;7.70;99.90
68813;DHT22;55808;48.112;11.552;2022-09-28T10:26:13;7.70;99.90
68813;DHT22;55808;48.112;11.552;2022-09-28T10:28:47;7.70;99.90
68813;DHT22;55808;48.112;11.552;2022-09-28T10:34:01;7.70;99.90
68813;DHT22;55808;48.112;11.552;2022-09-28T10:36:41;7.70;99.90
68813;DHT22;55808;48.112;11.552;2022-09-28T10:40:08;7.90;99.90
68813;DHT22;55808;48.112;11.552;2022-09-28T10:42:10;7.90;99.90
68813;DHT22;55808;48.112;11.552;2022-09-28T10:44:52;7.90;99.90
68813;DHT22;55808;48.112;11.552;2022-09-28T10:47:20;7.80;99.90
68813;DHT22;55808;48.112;11.552;2022-09-28T10:49:48;7.90;99.90
68813;DHT22;55808;48.112;11.552;2022-09-28T10:52:42;8.00;99.90
68813;DHT22;55808;48.112;11.552;2022-09-28T10:57:46;8.10;99.90
68813;DHT22;55808;48.112;11.552;2022-09-28T11:02:59;8.20;99.90
68813;DHT22;55808;48.112;11.552;2022-09-28T11:05:26;8.10;99.90
68813;DHT22;55808;48.112;11.552;2022-09-28T11:07:53;8.10;99.90
68813;DHT22;55808;48.112;11.552;2022-09-28T11:10:26;8.20;99.90
68813;DHT22;55808;48.112;11.552;2022-09-28T11:12:53;8.30;99.90
68813;DHT22;55808;48.112;11.552;2022-09-28T11:15:27;8.30;99.90
68813;DHT22;55808;48.112;11.552;2022-09-28T11:17:54;8.40;99.90
68813;DHT22;55808;48.112;11.552;2022-09-28T11:22:52;8.20;99.90
68813;DHT22;55808;48.112;11.552;2022-09-28T11:25:19;8.10;99.90
68813;DHT22;55808;48.112;11.552;2022-09-28T11:30:29;8.30;99.90
68813;DHT22;55808;48.112;11.552;2022-09-28T11:33:06;8.40;99.90
68813;DHT22;55808;48.112;11.552;2022-09-28T11:38:13;8.40;99.90
68813;DHT22;55808;48.112;11.552;2022-09-28T11:46:43;8.60;99.90
68813;DHT22;55808;48.112;11.552;2022-09-28T11:52:18;8.60;99.90
68813;DHT22;55808;48.112;11.552;2022-09-28T11:57:41;8.60;99.90
68813;DHT22;55808;48.112;11.552;2022-09-28T12:00:19;8.60;99.90
68813;DHT22;55808;48.112;11.552;2022-09-28T12:02:59;8.50;99.90
68813;DHT22;55808;48.112;11.552;2022-09-28T12:05:37;8.40;99.90
68813;DHT22;55808;48.112;11.552;2022-09-28T12:08:11;8.40;99.90
68813;DHT22;55808;48.112;11.552;2022-09-28T12:10:44;8.60;99.90
68813;DHT22;55808;48.112;11.552;2022-09-28T12:13:24;8.50;99.90
68813;DHT22;55808;48.112;11.552;2022-09-28T12:15:58;8.60;99.90
68813;DHT22;55808;48.112;11.552;2022-09-28T12:18:25;8.80;99.90
68813;DHT22;55808;48.112;11.552;2022-09-28T12:23:37;8.80;99.90
68813;DHT22;55808;48.112;11.552;2022-09-28T12:26:23;8.70;99.90
68813;DHT22;55808;48.112;11.552;2022-09-28T12:28:55;8.80;99.90
68813;DHT22;55808;48.112;11.552;2022-09-28T12:31:32;8.50;99.90
68813;DHT22;55808;48.112;11.552;2022-09-28T12:34:00;8.50;99.90
68813;DHT22;55808;48.112;11.552;2022-09-28T12:42:25;8.80;99.90
68813;DHT22;55808;48.112;11.552;2022-09-28T12:45:13;8.70;99.90
68813;DHT22;55808;48.112;11.552;2022-09-28T13:03:54;8.60;99.90
68813;DHT22;55808;48.112;11.552;2022-09-28T13:06:52;8.60;99.90
68813;DHT22;55808;48.112;11.552;2022-09-28T13:09:24;8.70;99.90
68813;DHT22;55808;48.112;11.552;2022-09-28T13:12:18;8.70;99.90
68813;DHT22;55808;48.112;11.552;2022-09-28T13:15:01;8.60;99.90
68813;DHT22;55808;48.112;11.552;2022-09-28T13:17:41;8.60;99.90
68813;DHT22;55808;48.112;11.552;2022-09-28T13:25:30;8.40;99.90
68813;DHT22;55808;48.112;11.552;2022-09-28T13:28:03;8.20;99.90
68813;DHT22;55808;48.112;11.552;2022-09-28T13:30:31;8.30;99.90
68813;DHT22;55808;48.112;11.552;2022-09-28T13:33:00;8.30;99.90
68813;DHT22;55808;48.112;11.552;2022-09-28T13:35:27;8.10;99.90
68813;DHT22;55808;48.112;11.552;2022-09-28T13:43:35;8.00;99.90
68813;DHT22;55808;48.112;11.552;2022-09-28T13:46:30;7.90;99.90
68813;DHT22;55808;48.112;11.552;2022-09-28T13:57:15;7.90;99.90
68813;DHT22;55808;48.112;11.552;2022-09-28T14:00:11;7.80;99.90
68813;DHT22;55808;48.112;11.552;2022-09-28T14:02:43;7.80;99.90
68813;DHT22;55808;48.112;11.552;2022-09-28T14:07:56;7.80;99.90
68813;DHT22;55808;48.112;11.552;2022-09-28T14:10:45;7.90;99.90
68813;DHT22;55808;48.112;11.552;2022-09-28T14:13:11;8.00;99.90
68813;DHT22;55808;48.112;11.552;2022-09-28T14:15:41;7.90;99.90
68813;DHT22;55808;48.112;11.552;2022-09-28T14:18:28;7.90;99.90
68813;DHT22;55808;48.112;11.552;2022-09-28T14:23:58;8.10;99.90
68813;DHT22;55808;48.112;11.552;2022-09-28T14:26:47;8.10;99.90
68813;DHT22;55808;48.112;11.552;2022-09-28T14:31:56;8.10;99.90
68813;DHT22;55808;48.112;11.552;2022-09-28T14:37:00;8.00;99.90
68813;DHT22;55808;48.112;11.552;2022-09-28T14:39:46;8.00;99.90
68813;DHT22;55808;48.112;11.552;2022-09-28T14:42:31;8.00;99.90
68813;DHT22;55808;48.112;11.552;2022-09-28T14:47:43;8.10;99.90
68813;DHT22;55808;48.112;11.552;2022-09-28T14:50:25;8.00;99.90
68813;DHT22;55808;48.112;11.552;2022-09-28T14:53:12;8.00;99.90
68813;DHT22;55808;48.112;11.552;2022-09-28T14:55:52;7.90;99.90
68813;DHT22;55808;48.112;11.552;2022-09-28T14:58:22;8.00;99.90
68813;DHT22;55808;48.112;11.552;2022-09-28T15:00:54;8.00;99.90
68813;DHT22;55808;48.112;11.552;2022-09-28T15:03:23;8.00;99.90
68813;DHT22;55808;48.112;11.552;2022-09-28T15:05:48;7.90;99.90
68813;DHT22;55808;48.112;11.552;2022-09-28T15:08:18;7.90;99.90
68813;DHT22;55808;48.112;11.552;2022-09-28T15:10:45;7.90;99.90
68813;DHT22;55808;48.112;11.552;2022-09-28T15:13:26;8.00;99.90
68813;DHT22;55808;48.112;11.552;2022-09-28T15:16:05;7.90;99.90
68813;DHT22;55808;48.112;11.552;2022-09-28T15:18:57;7.80;99.90
68813;DHT22;55808;48.112;11.552;2022-09-28T15:21:52;7.80;99.90
68813;DHT22;55808;48.112;11.552;2022-09-28T15:24:32;7.90;99.90
68813;DHT22;55808;48.112;11.552;2022-09-28T15:26:59;7.80;99.90
68813;DHT22;55808;48.112;11.552;2022-09-28T15:29:25;7.90;99.90
68813;DHT22;55808;48.112;11.552;2022-09-28T15:31:56;7.90;99.90
68813;DHT22;55808;48.112;11.552;2022-09-28T15:34:32;7.80;99.90
68813;DHT22;55808;48.112;11.552;2022-09-28T15:37:23;7.90;99.90
68813;DHT22;55808;48.112;11.552;2022-09-28T15:39:51;7.80;99.90
68813;DHT22;55808;48.112;11.552;2022-09-28T15:42:18;7.80;99.90
68813;DHT22;55808;48.112;11.552;2022-09-28T15:45:03;7.80;99.90
68813;DHT22;55808;48.112;11.552;2022-09-28T15:47:32;7.90;99.90
68813;DHT22;55808;48.112;11.552;2022-09-28T15:50:03;7.90;99.90
68813;DHT22;55808;48.112;11.552;2022-09-28T15:52:42;7.90;99.90
68813;DHT22;55808;48.112;11.552;2022-09-28T15:55:26;7.90;99.90
68813;DHT22;55808;48.112;11.552;2022-09-28T16:00:30;7.90;99.90
68813;DHT22;55808;48.112;11.552;2022-09-28T16:03:03;7.80;99.90
68813;DHT22;55808;48.112;11.552;2022-09-28T16:05:49;7.80;99.90
68813;DHT22;55808;48.112;11.552;2022-09-28T16:08:20;7.70;99.90
68813;DHT22;55808;48.112;11.552;2022-09-28T16:11:05;7.80;99.90
68813;DHT22;55808;48.112;11.552;2022-09-28T16:13:33;7.80;99.90
68813;DHT22;55808;48.112;11.552;2022-09-28T16:15:59;7.80;99.90
68813;DHT22;55808;48.112;11.552;2022-09-28T16:18:29;7.80;99.90
68813;DHT22;55808;48.112;11.552;2022-09-28T16:21:16;7.70;99.90
68813;DHT22;55808;48.112;11.552;2022-09-28T16:23:50;7.70;99.90
68813;DHT22;55808;48.112;11.552;2022-09-28T16:26:27;7.70;99.90
68813;DHT22;55808;48.112;11.552;2022-09-28T16:28:53;7.70;99.90
68813;DHT22;55808;48.112;11.552;2022-09-28T16:33:55;7.70;99.90
68813;DHT22;55808;48.112;11.552;2022-09-28T16:36:26;7.60;99.90
68813;DHT22;55808;48.112;11.552;2022-09-28T16:38:54;7.60;99.90
68813;DHT22;55808;48.112;11.552;2022-09-28T16:41:23;7.60;99.90
68813;DHT22;55808;48.112;11.552;2022-09-28T16:43:53;7.60;99.90
68813;DHT22;55808;48.112;11.552;2022-09-28T16:46:33;7.60;99.90
68813;DHT22;55808;48.112;11.552;2022-09-28T16:49:05;7.60;99.90
68813;DHT22;55808;48.112;11.552;2022-09-28T16:51:31;7.60;99.90
68813;DHT22;55808;48.112;11.552;2022-09-28T16:54:08;7.60;99.90
68813;DHT22;55808;48.112;11.552;2022-09-28T16:56:54;7.60;99.90
68813;DHT22;55808;48.112;11.552;2022-09-28T16:59:21;7.60;99.90
68813;DHT22;55808;48.112;11.552;2022-09-28T17:01:47;7.60;99.90
68813;DHT22;55808;48.112;11.552;2022-09-28T17:04:13;7.60;99.90
68813;DHT22;55808;48.112;11.552;2022-09-28T17:06:39;7.60;99.90
68813;DHT22;55808;48.112;11.552;2022-09-28T17:09:05;7.60;99.90
68813;DHT22;55808;48.112;11.552;2022-09-28T17:11:31;7.60;99.90
68813;DHT22;55808;48.112;11.552;2022-09-28T17:13:57;7.70;99.90
68813;DHT22;55808;48.112;11.552;2022-09-28T17:16:28;7.60;99.90
68813;DHT22;55808;48.112;11.552;2022-09-28T17:18:56;7.70;99.90
68813;DHT22;55808;48.112;11.552;2022-09-28T17:21:21;7.70;99.90
68813;DHT22;55808;48.112;11.552;2022-09-28T17:23:48;7.60;99.90
68813;DHT22;55808;48.112;11.552;2022-09-28T17:26:32;7.60;99.90
68813;DHT22;55808;48.112;11.552;2022-09-28T17:29:00;7.60;99.90
68813;DHT22;55808;48.112;11.552;2022-09-28T17:31:29;7.60;99.90
68813;DHT22;55808;48.112;11.552;2022-09-28T17:33:58;7.60;99.90
68813;DHT22;55808;48.112;11.552;2022-09-28T17:36:24;7.50;99.90
68813;DHT22;55808;48.112;11.552;2022-09-28T17:38:51;7.50;99.90
68813;DHT22;55808;48.112;11.552;2022-09-28T17:41:18;7.60;99.90
68813;DHT22;55808;48.112;11.552;2022-09-28T17:43:44;7.60;99.90
68813;DHT22;55808;48.112;11.552;2022-09-28T17:46:29;7.50;99.90
68813;DHT22;55808;48.112;11.552;2022-09-28T17:48:57;7.50;99.90
68813;DHT22;55808;48.112;11.552;2022-09-28T17:51:25;7.60;99.90
68813;DHT22;55808;48.112;11.552;2022-09-28T17:53:51;7.60;99.90
68813;DHT22;55808;48.112;11.552;2022-09-28T17:56:18;7.60;99.90
68813;DHT22;55808;48.112;11.552;2022-09-28T17:58:44;7.60;99.90
68813;DHT22;55808;48.112;11.552;2022-09-28T18:01:09;7.50;99.90
68813;DHT22;55808;48.112;11.552;2022-09-28T18:03:35;7.60;99.90
68813;DHT22;55808;48.112;11.552;2022-09-28T18:06:05;7.50;99.90
68813;DHT22;55808;48.112;11.552;2022-09-28T18:08:31;7.50;99.90
68813;DHT22;55808;48.112;11.552;2022-09-28T18:10:58;7.40;99.90
68813;DHT22;55808;48.112;11.552;2022-09-28T18:13:24;7.40;99.90
68813;DHT22;55808;48.112;11.552;2022-09-28T18:15:51;7.40;99.90
68813;DHT22;55808;48.112;11.552;2022-09-28T18:18:17;7.40;99.90
68813;DHT22;55808;48.112;11.552;2022-09-28T18:20:43;7.40;99.90
68813;DHT22;55808;48.112;11.552;2022-09-28T18:23:09;7.30;99.90
68813;DHT22;55808;48.112;11.552;2022-09-28T18:25:39;7.40;99.90
68813;DHT22;55808;48.112;11.552;2022-09-28T18:28:04;7.30;99.90